Time;durP1;ratioP1;P1;durP2;ratioP2;P2;SDS_P1;SDS_P2;PMS_P1;PMS_P2;Temp;Humidity;BMP_temperature;BMP_pressure;BME280_temperature;BME280_humidity;BME280_pressure;Samples;Min_cycle;Max_cycle;Signal;HPM_P1;HPM_P2
2021/05/28 05:56:57;;;;;;;344.80;328.60;;;10.20;99.90;;;;;;5856636;24;20426;-82
2021/05/28 11:10:24;;;;;;;42.60;9.23;;;19.30;10.90;;;;;;6120595;23;20229;-78
2021/05/28 11:12:54;;;;;;;42.87;8.67;;;20.20;12.30;;;;;;6166385;23;20482;-79
2021/05/28 11:15:27;;;;;;;44.43;10.20;;;21.00;12.90;;;;;;6167201;23;20401;-81
2021/05/28 15:21:50;;;;;;;42.95;3.70;;;24.00;1.00;;;;;;5894754;24;20466;-82
2021/05/28 15:24:17;;;;;;;39.60;2.97;;;22.70;1.00;;;;;;6012349;23;20168;-80
2021/05/28 15:26:43;;;;;;;39.53;3.17;;;23.00;1.00;;;;;;6067873;23;20908;-79
2021/05/28 15:29:13;;;;;;;40.33;3.27;;;23.20;1.00;;;;;;6078591;23;20404;-81
2021/05/28 15:31:41;;;;;;;37.63;3.10;;;23.80;1.00;;;;;;6068806;23;20536;-80
2021/05/28 15:34:08;;;;;;;37.10;3.17;;;24.70;1.00;;;;;;6078840;23;20412;-79
2021/05/28 15:36:34;;;;;;;36.50;2.77;;;25.10;1.00;;;;;;6067888;23;20877;-80
2021/05/28 15:39:01;;;;;;;36.70;2.50;;;24.90;1.00;;;;;;6068911;23;20952;-80
2021/05/28 15:41:28;;;;;;;37.90;2.87;;;23.50;1.00;;;;;;6068623;23;20436;-79
2021/05/28 15:43:54;;;;;;;36.57;2.93;;;22.90;1.00;;;;;;6052655;23;20780;-79
2021/05/28 15:46:20;;;;;;;36.10;2.67;;;23.60;1.00;;;;;;6040972;23;20444;-82
2021/05/28 15:48:47;;;;;;;37.97;3.10;;;23.00;1.00;;;;;;6049845;23;20414;-82
2021/05/28 15:51:14;;;;;;;36.50;3.27;;;22.60;1.00;;;;;;6039405;23;20414;-81
2021/05/28 15:53:40;;;;;;;35.20;2.83;;;22.90;1.00;;;;;;6040701;23;20485;-82
2021/05/28 15:56:07;;;;;;;36.30;3.30;;;23.00;1.00;;;;;;6040568;23;20496;-83
2021/05/28 15:58:33;;;;;;;37.70;3.20;;;22.60;1.00;;;;;;6040312;23;20724;-82
2021/05/28 16:00:59;;;;;;;36.50;3.37;;;21.90;1.00;;;;;;6049297;23;20786;-83
2021/05/28 16:03:25;;;;;;;37.60;4.00;;;22.00;1.00;;;;;;6040745;23;20408;-83
2021/05/28 16:05:52;;;;;;;33.50;2.43;;;22.30;1.00;;;;;;6040742;23;20894;-82
2021/05/28 16:08:19;;;;;;;34.00;3.10;;;22.40;1.00;;;;;;6039235;23;20492;-82
2021/05/28 16:10:47;;;;;;;33.97;2.57;;;22.60;1.00;;;;;;6040548;23;20537;-81
2021/05/28 16:13:13;;;;;;;35.13;2.60;;;23.20;1.00;;;;;;6040595;23;20406;-83
2021/05/28 16:15:40;;;;;;;34.50;3.17;;;23.80;1.00;;;;;;6039972;23;20440;-83
2021/05/28 16:18:07;;;;;;;36.73;2.63;;;24.30;1.00;;;;;;6040643;23;20484;-83
2021/05/28 16:20:33;;;;;;;33.40;2.40;;;24.40;1.00;;;;;;6068909;23;20456;-82
2021/05/28 16:23:00;;;;;;;36.87;3.37;;;24.30;1.00;;;;;;6067531;23;20492;-82
2021/05/28 16:25:29;;;;;;;36.00;2.70;;;24.50;1.00;;;;;;6068938;23;20428;-85
2021/05/28 16:27:57;;;;;;;37.00;3.13;;;25.00;1.00;;;;;;6069058;23;20445;-84
2021/05/28 16:30:25;;;;;;;36.93;2.90;;;25.10;1.00;;;;;;6078249;23;20508;-82
2021/05/28 16:32:52;;;;;;;39.00;3.00;;;24.60;1.00;;;;;;6069431;23;20480;-83
2021/05/28 16:35:53;;;;;;;38.27;3.23;;;25.20;1.00;;;;;;6069057;23;20456;-79
2021/05/28 16:42:03;;;;;;;37.10;3.10;;;24.30;1.00;;;;;;5935019;24;20416;-80
2021/05/28 16:45:19;;;;;;;40.80;3.50;;;23.70;1.00;;;;;;5955195;24;20431;-80
2021/05/28 16:51:19;;;;;;;;;;;;;;;;;;;;;
2021/05/28 16:53:48;;;;;;;38.27;3.23;;;24.40;1.00;;;;;;5992095;23;20427;-82
2021/05/28 16:56:55;;;;;;;36.50;3.37;;;25.60;1.00;;;;;;6068665;23;20409;-83
2021/05/28 16:59:41;;;;;;;;;;;;;;;;;;;;;
2021/05/28 17:02:10;;;;;;;36.80;3.10;;;24.40;1.00;;;;;;6067819;23;20405;-82
2021/05/28 17:04:53;;;;;;;36.17;3.17;;;24.50;1.00;;;;;;6068440;23;20404;-82
2021/05/28 17:07:21;;;;;;;36.20;2.97;;;24.80;1.00;;;;;;6077133;23;20419;-80
2021/05/28 17:09:55;;;;;;;35.90;3.13;;;25.10;1.00;;;;;;6078271;23;20424;-83
2021/05/28 17:12:42;;;;;;;35.70;2.83;;;25.60;1.00;;;;;;6068800;23;20401;-83
2021/05/28 17:15:33;;;;;;;;;;;;;;;;;;;;;
2021/05/28 17:17:59;;;;;;;36.97;3.00;;;24.40;1.00;;;;;;6025952;23;20417;-84
2021/05/28 17:20:26;;;;;;;35.07;2.63;;;24.00;1.00;;;;;;6068550;23;20467;-82
2021/05/28 17:22:52;;;;;;;34.50;2.57;;;23.50;1.00;;;;;;6076635;23;20415;-82
2021/05/28 17:25:20;;;;;;;36.40;3.20;;;23.20;1.00;;;;;;6068570;23;20412;-80
2021/05/28 17:27:47;;;;;;;36.00;2.90;;;23.30;1.00;;;;;;6078048;23;20409;-80
2021/05/28 17:30:21;;;;;;;33.93;2.37;;;23.10;1.00;;;;;;6078152;23;20424;-80
2021/05/28 17:32:48;;;;;;;33.60;2.43;;;22.90;1.00;;;;;;6078063;23;20420;-79
2021/05/28 17:35:15;;;;;;;33.70;2.30;;;22.60;1.00;;;;;;6066033;23;20405;-80
2021/05/28 17:37:42;;;;;;;32.37;2.70;;;22.20;1.00;;;;;;6074168;23;20416;-81
2021/05/28 17:40:13;;;;;;;32.50;2.47;;;21.80;1.00;;;;;;6066209;23;20750;-81
2021/05/28 17:42:40;;;;;;;32.40;2.70;;;21.60;1.00;;;;;;6066306;23;20905;-80
2021/05/28 17:45:09;;;;;;;32.40;2.73;;;22.00;1.00;;;;;;6075487;23;20416;-82
2021/05/28 17:47:36;;;;;;;33.13;2.53;;;21.90;1.00;;;;;;6066251;23;20411;-82
2021/05/28 17:50:04;;;;;;;30.30;2.37;;;22.10;1.00;;;;;;6075554;23;20814;-82
2021/05/28 17:52:31;;;;;;;31.50;2.57;;;21.80;1.00;;;;;;6074606;23;20412;-83
2021/05/28 17:54:57;;;;;;;31.50;3.03;;;22.50;1.00;;;;;;6075871;23;20412;-81
2021/05/28 17:57:23;;;;;;;30.10;3.00;;;23.40;1.00;;;;;;6066688;23;20868;-81
2021/05/28 17:59:53;;;;;;;30.97;2.40;;;23.20;1.00;;;;;;6066659;23;20429;-80
2021/05/28 18:02:19;;;;;;;30.60;2.50;;;22.80;1.00;;;;;;6066642;23;20405;-84
2021/05/28 18:04:47;;;;;;;30.57;2.47;;;22.60;1.00;;;;;;6075720;23;20819;-81
2021/05/28 18:07:13;;;;;;;30.30;2.50;;;21.80;1.00;;;;;;6074669;23;20904;-82
2021/05/28 20:46:46;;;;;;;15.87;3.70;;;10.70;99.90;;;;;;5629451;25;20502;-78
